KBGR

Bangor International Airport

Bangor, Maine, USA
METAR KBGR 230053Z 17004KT 10SM OVC080 16/10 A2997 RMK AO2 RAB12E33 SLP145 P0000 T01560100
Observed Flight Rules
May-23 @ 00:53 UTC (29 minutes ago) Visual Flight Rules
Wind Visibility Clouds
170° at 4 knots 10 miles
  • Overcast at 8,000' AGL
Temperatures Readings Precipitation
Current 16°C / 61°F
Dewpoint 10°C / 50°F
Humidity 68%
Altimeter 29.97" Hg
Pressure 1014.5 hPa
Elevation 57
Current Rain 0.005
METAR KBGR 230053Z 17004KT 10SM OVC080 16/10 A2997 RMK AO2 RAB12E33 SLP145 P0000 T01560100
Observed Flight Rules
May-23 @ 00:53 UTC
(29 minutes ago)
VFR
Wind Visibility
170° at 4 knots 10 miles
Clouds
  • Overcast at 8,000' AGL
Temperature Dewpoint
16°C / 61°F 10°C / 50°F
Humidity Altimeter Pressure
68% 29.97" Hg 1014.5 hPa
Current Rain
0.005